sensor_id;sensor_type;location;lat;lon;timestamp;temperature;humidity
41628;DHT22;27321;50.816;6.054;2023-04-01T00:02:59;10.70;81.00
41628;DHT22;27321;50.816;6.054;2023-04-01T00:06:01;10.70;80.70
41628;DHT22;27321;50.816;6.054;2023-04-01T00:09:02;10.70;80.90
41628;DHT22;27321;50.816;6.054;2023-04-01T00:12:04;10.60;81.00
41628;DHT22;27321;50.816;6.054;2023-04-01T00:15:08;10.60;81.10
41628;DHT22;27321;50.816;6.054;2023-04-01T00:18:10;10.70;81.50
41628;DHT22;27321;50.816;6.054;2023-04-01T00:21:11;10.70;81.20
41628;DHT22;27321;50.816;6.054;2023-04-01T00:24:12;10.70;81.10
41628;DHT22;27321;50.816;6.054;2023-04-01T00:27:13;10.70;81.20
41628;DHT22;27321;50.816;6.054;2023-04-01T00:30:15;10.70;81.00
41628;DHT22;27321;50.816;6.054;2023-04-01T00:33:17;10.70;81.00
41628;DHT22;27321;50.816;6.054;2023-04-01T00:36:20;10.70;81.00
41628;DHT22;27321;50.816;6.054;2023-04-01T00:39:22;10.70;81.10
41628;DHT22;27321;50.816;6.054;2023-04-01T00:42:23;10.70;81.30
41628;DHT22;27321;50.816;6.054;2023-04-01T00:48:41;10.70;81.40
41628;DHT22;27321;50.816;6.054;2023-04-01T00:51:45;10.70;80.80
41628;DHT22;27321;50.816;6.054;2023-04-01T00:54:51;10.60;81.40
41628;DHT22;27321;50.816;6.054;2023-04-01T00:57:57;10.60;81.30
41628;DHT22;27321;50.816;6.054;2023-04-01T01:01:01;10.70;81.20
41628;DHT22;27321;50.816;6.054;2023-04-01T01:04:04;10.60;81.30
41628;DHT22;27321;50.816;6.054;2023-04-01T01:16:30;10.60;81.60
41628;DHT22;27321;50.816;6.054;2023-04-01T01:27:07;10.60;81.10
41628;DHT22;27321;50.816;6.054;2023-04-01T01:30:33;10.60;81.40
41628;DHT22;27321;50.816;6.054;2023-04-01T01:36:55;10.60;81.20
41628;DHT22;27321;50.816;6.054;2023-04-01T01:40:06;10.50;81.30
41628;DHT22;27321;50.816;6.054;2023-04-01T01:43:12;10.50;81.30
41628;DHT22;27321;50.816;6.054;2023-04-01T01:46:22;10.50;81.10
41628;DHT22;27321;50.816;6.054;2023-04-01T01:49:24;10.50;81.10
41628;DHT22;27321;50.816;6.054;2023-04-01T01:52:27;10.50;80.80
41628;DHT22;27321;50.816;6.054;2023-04-01T01:55:34;10.50;80.90
41628;DHT22;27321;50.816;6.054;2023-04-01T01:58:41;10.50;80.60
41628;DHT22;27321;50.816;6.054;2023-04-01T02:01:50;10.50;80.40
41628;DHT22;27321;50.816;6.054;2023-04-01T02:04:53;10.50;80.30
41628;DHT22;27321;50.816;6.054;2023-04-01T02:08:13;10.50;80.70
41628;DHT22;27321;50.816;6.054;2023-04-01T02:11:34;10.50;80.30
41628;DHT22;27321;50.816;6.054;2023-04-01T02:14:53;10.40;80.60
41628;DHT22;27321;50.816;6.054;2023-04-01T02:17:56;10.40;80.70
41628;DHT22;27321;50.816;6.054;2023-04-01T02:20:59;10.40;81.20
41628;DHT22;27321;50.816;6.054;2023-04-01T02:24:02;10.40;81.20
41628;DHT22;27321;50.816;6.054;2023-04-01T02:27:09;10.40;81.50
41628;DHT22;27321;50.816;6.054;2023-04-01T02:30:13;10.40;81.40
41628;DHT22;27321;50.816;6.054;2023-04-01T02:33:19;10.40;81.50
41628;DHT22;27321;50.816;6.054;2023-04-01T02:36:21;10.40;81.50
41628;DHT22;27321;50.816;6.054;2023-04-01T02:39:22;10.40;81.80
41628;DHT22;27321;50.816;6.054;2023-04-01T02:42:23;10.50;81.60
41628;DHT22;27321;50.816;6.054;2023-04-01T02:45:24;10.40;82.00
41628;DHT22;27321;50.816;6.054;2023-04-01T02:48:25;10.50;81.90
41628;DHT22;27321;50.816;6.054;2023-04-01T02:51:26;10.50;81.70
41628;DHT22;27321;50.816;6.054;2023-04-01T02:54:27;10.50;81.90
41628;DHT22;27321;50.816;6.054;2023-04-01T02:57:28;10.50;82.00
41628;DHT22;27321;50.816;6.054;2023-04-01T03:00:29;10.50;82.30
41628;DHT22;27321;50.816;6.054;2023-04-01T03:03:30;10.50;82.30
41628;DHT22;27321;50.816;6.054;2023-04-01T03:06:31;10.50;81.60
41628;DHT22;27321;50.816;6.054;2023-04-01T03:09:32;10.50;82.00
41628;DHT22;27321;50.816;6.054;2023-04-01T03:12:34;10.50;82.00
41628;DHT22;27321;50.816;6.054;2023-04-01T03:15:34;10.50;81.60
41628;DHT22;27321;50.816;6.054;2023-04-01T03:18:36;10.50;81.80
41628;DHT22;27321;50.816;6.054;2023-04-01T03:21:37;10.50;82.20
41628;DHT22;27321;50.816;6.054;2023-04-01T03:24:38;10.50;81.90
41628;DHT22;27321;50.816;6.054;2023-04-01T03:27:39;10.50;81.80
41628;DHT22;27321;50.816;6.054;2023-04-01T03:30:41;10.50;81.70
41628;DHT22;27321;50.816;6.054;2023-04-01T03:33:43;10.50;81.60
41628;DHT22;27321;50.816;6.054;2023-04-01T03:36:44;10.50;81.70
41628;DHT22;27321;50.816;6.054;2023-04-01T03:39:46;10.50;81.60
41628;DHT22;27321;50.816;6.054;2023-04-01T03:42:47;10.50;81.90
41628;DHT22;27321;50.816;6.054;2023-04-01T03:45:50;10.50;81.60
41628;DHT22;27321;50.816;6.054;2023-04-01T03:48:51;10.40;82.20
41628;DHT22;27321;50.816;6.054;2023-04-01T03:51:53;10.40;82.20
41628;DHT22;27321;50.816;6.054;2023-04-01T03:54:54;10.40;82.40
41628;DHT22;27321;50.816;6.054;2023-04-01T03:57:56;10.40;82.20
41628;DHT22;27321;50.816;6.054;2023-04-01T04:00:57;10.40;82.30
41628;DHT22;27321;50.816;6.054;2023-04-01T04:03:58;10.30;82.40
41628;DHT22;27321;50.816;6.054;2023-04-01T04:07:01;10.30;82.50
41628;DHT22;27321;50.816;6.054;2023-04-01T04:10:07;10.30;83.20
41628;DHT22;27321;50.816;6.054;2023-04-01T04:13:08;10.30;83.00
41628;DHT22;27321;50.816;6.054;2023-04-01T04:16:16;10.30;82.90
41628;DHT22;27321;50.816;6.054;2023-04-01T04:19:21;10.30;82.90
41628;DHT22;27321;50.816;6.054;2023-04-01T04:22:22;10.30;82.90
41628;DHT22;27321;50.816;6.054;2023-04-01T04:25:23;10.30;82.90
41628;DHT22;27321;50.816;6.054;2023-04-01T04:28:25;10.30;83.10
41628;DHT22;27321;50.816;6.054;2023-04-01T04:31:28;10.40;83.10
41628;DHT22;27321;50.816;6.054;2023-04-01T04:34:32;10.40;83.10
41628;DHT22;27321;50.816;6.054;2023-04-01T04:37:33;10.40;83.20
41628;DHT22;27321;50.816;6.054;2023-04-01T04:40:37;10.30;83.10
41628;DHT22;27321;50.816;6.054;2023-04-01T04:43:40;10.30;83.80
41628;DHT22;27321;50.816;6.054;2023-04-01T04:46:42;10.30;83.90
41628;DHT22;27321;50.816;6.054;2023-04-01T04:49:47;10.40;83.90
41628;DHT22;27321;50.816;6.054;2023-04-01T04:52:48;10.50;83.20
41628;DHT22;27321;50.816;6.054;2023-04-01T04:55:50;10.30;83.40
41628;DHT22;27321;50.816;6.054;2023-04-01T04:59:14;10.30;83.60
41628;DHT22;27321;50.816;6.054;2023-04-01T05:02:22;10.30;83.50
41628;DHT22;27321;50.816;6.054;2023-04-01T05:05:23;10.40;83.80
41628;DHT22;27321;50.816;6.054;2023-04-01T05:08:24;10.40;83.60
41628;DHT22;27321;50.816;6.054;2023-04-01T05:11:28;10.30;83.80
41628;DHT22;27321;50.816;6.054;2023-04-01T05:14:30;10.40;83.60
41628;DHT22;27321;50.816;6.054;2023-04-01T05:17:40;10.30;83.50
41628;DHT22;27321;50.816;6.054;2023-04-01T05:20:52;10.30;83.90
41628;DHT22;27321;50.816;6.054;2023-04-01T05:23:54;10.30;84.00
41628;DHT22;27321;50.816;6.054;2023-04-01T05:26:56;10.30;84.10
41628;DHT22;27321;50.816;6.054;2023-04-01T05:29:58;10.30;84.10
41628;DHT22;27321;50.816;6.054;2023-04-01T05:33:30;10.30;84.10
41628;DHT22;27321;50.816;6.054;2023-04-01T05:36:31;10.40;83.90
41628;DHT22;27321;50.816;6.054;2023-04-01T05:39:39;10.30;83.90
41628;DHT22;27321;50.816;6.054;2023-04-01T05:42:41;10.30;84.00
41628;DHT22;27321;50.816;6.054;2023-04-01T05:45:42;10.30;84.20
41628;DHT22;27321;50.816;6.054;2023-04-01T05:49:03;10.30;84.30
41628;DHT22;27321;50.816;6.054;2023-04-01T05:52:05;10.30;84.40
41628;DHT22;27321;50.816;6.054;2023-04-01T05:55:09;10.30;84.30
41628;DHT22;27321;50.816;6.054;2023-04-01T05:58:10;10.30;83.90
41628;DHT22;27321;50.816;6.054;2023-04-01T06:01:14;10.20;84.20
41628;DHT22;27321;50.816;6.054;2023-04-01T06:04:17;10.30;84.10
41628;DHT22;27321;50.816;6.054;2023-04-01T06:07:19;10.30;83.80
41628;DHT22;27321;50.816;6.054;2023-04-01T06:10:21;10.30;84.00
41628;DHT22;27321;50.816;6.054;2023-04-01T06:27:07;10.30;83.50
41628;DHT22;27321;50.816;6.054;2023-04-01T06:34:32;10.20;83.90
41628;DHT22;27321;50.816;6.054;2023-04-01T06:41:39;10.30;83.70
41628;DHT22;27321;50.816;6.054;2023-04-01T06:44:41;10.30;83.60
41628;DHT22;27321;50.816;6.054;2023-04-01T06:56:09;10.30;84.00
41628;DHT22;27321;50.816;6.054;2023-04-01T06:59:30;10.30;83.70
41628;DHT22;27321;50.816;6.054;2023-04-01T07:06:46;10.40;84.30
41628;DHT22;27321;50.816;6.054;2023-04-01T07:09:56;10.40;83.90
41628;DHT22;27321;50.816;6.054;2023-04-01T07:13:07;10.40;84.20
41628;DHT22;27321;50.816;6.054;2023-04-01T07:16:42;10.50;84.00
41628;DHT22;27321;50.816;6.054;2023-04-01T07:23:23;10.50;84.00
41628;DHT22;27321;50.816;6.054;2023-04-01T07:26:49;10.50;83.60
41628;DHT22;27321;50.816;6.054;2023-04-01T07:29:57;10.50;83.60
41628;DHT22;27321;50.816;6.054;2023-04-01T07:33:16;10.40;83.90
41628;DHT22;27321;50.816;6.054;2023-04-01T07:36:35;10.30;83.70
41628;DHT22;27321;50.816;6.054;2023-04-01T07:47:39;10.50;83.80
41628;DHT22;27321;50.816;6.054;2023-04-01T07:51:14;10.50;83.80
41628;DHT22;27321;50.816;6.054;2023-04-01T08:01:29;10.50;83.50
41628;DHT22;27321;50.816;6.054;2023-04-01T08:04:50;10.40;83.50
41628;DHT22;27321;50.816;6.054;2023-04-01T08:08:18;10.40;83.40
41628;DHT22;27321;50.816;6.054;2023-04-01T08:18:57;10.50;83.70
41628;DHT22;27321;50.816;6.054;2023-04-01T08:22:38;10.40;83.90
41628;DHT22;27321;50.816;6.054;2023-04-01T08:26:01;10.40;84.30
41628;DHT22;27321;50.816;6.054;2023-04-01T08:32:43;10.50;84.20
41628;DHT22;27321;50.816;6.054;2023-04-01T08:35:56;10.60;83.80
41628;DHT22;27321;50.816;6.054;2023-04-01T08:39:07;10.60;83.70
41628;DHT22;27321;50.816;6.054;2023-04-01T08:46:19;10.70;83.20
41628;DHT22;27321;50.816;6.054;2023-04-01T08:57:21;10.70;83.00
41628;DHT22;27321;50.816;6.054;2023-04-01T09:05:34;10.60;83.20
41628;DHT22;27321;50.816;6.054;2023-04-01T09:15:34;10.70;83.60
41628;DHT22;27321;50.816;6.054;2023-04-01T09:19:00;10.80;83.50
41628;DHT22;27321;50.816;6.054;2023-04-01T09:23:02;10.90;83.10
41628;DHT22;27321;50.816;6.054;2023-04-01T09:34:05;10.90;82.70
41628;DHT22;27321;50.816;6.054;2023-04-01T09:40:59;10.90;83.30
41628;DHT22;27321;50.816;6.054;2023-04-01T09:44:36;10.90;83.40
41628;DHT22;27321;50.816;6.054;2023-04-01T09:48:04;11.00;83.30
41628;DHT22;27321;50.816;6.054;2023-04-01T09:51:47;11.00;82.80
41628;DHT22;27321;50.816;6.054;2023-04-01T10:17:41;11.20;82.20
41628;DHT22;27321;50.816;6.054;2023-04-01T10:24:45;11.30;82.30
41628;DHT22;27321;50.816;6.054;2023-04-01T10:28:13;11.40;82.20
41628;DHT22;27321;50.816;6.054;2023-04-01T10:39:02;11.60;81.90
41628;DHT22;27321;50.816;6.054;2023-04-01T10:42:41;11.60;82.30
41628;DHT22;27321;50.816;6.054;2023-04-01T10:50:14;11.60;81.80
41628;DHT22;27321;50.816;6.054;2023-04-01T10:58:09;11.60;81.20
41628;DHT22;27321;50.816;6.054;2023-04-01T11:25:13;11.60;81.40
41628;DHT22;27321;50.816;6.054;2023-04-01T11:31:54;11.70;80.70
41628;DHT22;27321;50.816;6.054;2023-04-01T11:38:47;11.80;81.10
41628;DHT22;27321;50.816;6.054;2023-04-01T11:42:48;11.80;80.80
41628;DHT22;27321;50.816;6.054;2023-04-01T11:46:52;11.60;81.20
41628;DHT22;27321;50.816;6.054;2023-04-01T11:50:24;11.60;81.60
41628;DHT22;27321;50.816;6.054;2023-04-01T12:04:17;11.70;81.30
41628;DHT22;27321;50.816;6.054;2023-04-01T12:11:17;11.60;81.60
41628;DHT22;27321;50.816;6.054;2023-04-01T12:14:44;11.60;81.80
41628;DHT22;27321;50.816;6.054;2023-04-01T12:18:15;11.60;81.20
41628;DHT22;27321;50.816;6.054;2023-04-01T12:28:37;11.30;82.60
41628;DHT22;27321;50.816;6.054;2023-04-01T12:36:01;11.30;82.70
41628;DHT22;27321;50.816;6.054;2023-04-01T12:40:01;11.40;82.40
41628;DHT22;27321;50.816;6.054;2023-04-01T12:43:33;11.50;82.00
41628;DHT22;27321;50.816;6.054;2023-04-01T13:08:49;11.70;81.40
41628;DHT22;27321;50.816;6.054;2023-04-01T13:15:46;11.80;82.10
41628;DHT22;27321;50.816;6.054;2023-04-01T13:29:38;11.80;81.50
41628;DHT22;27321;50.816;6.054;2023-04-01T13:32:47;11.90;81.00
41628;DHT22;27321;50.816;6.054;2023-04-01T13:39:38;11.90;80.90
41628;DHT22;27321;50.816;6.054;2023-04-01T13:42:57;11.90;80.70
41628;DHT22;27321;50.816;6.054;2023-04-01T14:04:23;12.20;79.60
41628;DHT22;27321;50.816;6.054;2023-04-01T14:08:09;12.10;79.90
41628;DHT22;27321;50.816;6.054;2023-04-01T14:11:50;12.20;79.80
41628;DHT22;27321;50.816;6.054;2023-04-01T14:15:29;12.10;80.20
41628;DHT22;27321;50.816;6.054;2023-04-01T14:22:59;12.00;80.10
41628;DHT22;27321;50.816;6.054;2023-04-01T14:26:29;12.00;80.80
41628;DHT22;27321;50.816;6.054;2023-04-01T14:30:00;12.00;80.60
41628;DHT22;27321;50.816;6.054;2023-04-01T14:47:28;12.10;80.40
41628;DHT22;27321;50.816;6.054;2023-04-01T14:51:13;12.10;80.90
41628;DHT22;27321;50.816;6.054;2023-04-01T14:54:37;12.20;80.20
41628;DHT22;27321;50.816;6.054;2023-04-01T14:57:41;12.20;80.00
41628;DHT22;27321;50.816;6.054;2023-04-01T15:01:12;12.10;80.70
41628;DHT22;27321;50.816;6.054;2023-04-01T15:09:00;12.00;80.90
41628;DHT22;27321;50.816;6.054;2023-04-01T15:12:32;12.10;80.00
41628;DHT22;27321;50.816;6.054;2023-04-01T15:22:40;12.10;80.00
41628;DHT22;27321;50.816;6.054;2023-04-01T15:26:26;12.10;80.60
41628;DHT22;27321;50.816;6.054;2023-04-01T15:40:26;12.00;79.90
41628;DHT22;27321;50.816;6.054;2023-04-01T15:43:46;12.00;78.90
41628;DHT22;27321;50.816;6.054;2023-04-01T15:46:58;12.00;79.80
41628;DHT22;27321;50.816;6.054;2023-04-01T16:22:35;11.60;80.30
41628;DHT22;27321;50.816;6.054;2023-04-01T16:26:06;11.50;80.20
41628;DHT22;27321;50.816;6.054;2023-04-01T16:33:03;11.40;80.70
41628;DHT22;27321;50.816;6.054;2023-04-01T16:36:27;11.40;80.60
41628;DHT22;27321;50.816;6.054;2023-04-01T16:43:11;11.40;80.50
41628;DHT22;27321;50.816;6.054;2023-04-01T16:56:24;11.60;79.80
41628;DHT22;27321;50.816;6.054;2023-04-01T17:03:45;11.50;79.60
41628;DHT22;27321;50.816;6.054;2023-04-01T17:06:53;11.40;79.80
41628;DHT22;27321;50.816;6.054;2023-04-01T17:10:42;11.40;79.80
41628;DHT22;27321;50.816;6.054;2023-04-01T17:14:38;11.40;79.90
41628;DHT22;27321;50.816;6.054;2023-04-01T17:28:46;11.30;79.90
41628;DHT22;27321;50.816;6.054;2023-04-01T17:32:06;11.30;80.10
41628;DHT22;27321;50.816;6.054;2023-04-01T17:35:26;11.30;80.30
41628;DHT22;27321;50.816;6.054;2023-04-01T17:42:10;11.10;80.20
41628;DHT22;27321;50.816;6.054;2023-04-01T17:45:28;11.10;80.40
41628;DHT22;27321;50.816;6.054;2023-04-01T17:59:35;11.00;80.90
41628;DHT22;27321;50.816;6.054;2023-04-01T18:02:43;11.10;81.20
41628;DHT22;27321;50.816;6.054;2023-04-01T18:20:40;11.00;81.20
41628;DHT22;27321;50.816;6.054;2023-04-01T18:24:29;11.00;81.60
41628;DHT22;27321;50.816;6.054;2023-04-01T18:27:46;11.00;81.00
41628;DHT22;27321;50.816;6.054;2023-04-01T18:31:18;11.00;81.50
41628;DHT22;27321;50.816;6.054;2023-04-01T18:38:12;11.00;82.10
41628;DHT22;27321;50.816;6.054;2023-04-01T18:41:40;11.00;82.00
41628;DHT22;27321;50.816;6.054;2023-04-01T19:02:45;10.70;82.00
41628;DHT22;27321;50.816;6.054;2023-04-01T19:06:23;10.70;81.70
41628;DHT22;27321;50.816;6.054;2023-04-01T19:09:31;10.70;82.10
41628;DHT22;27321;50.816;6.054;2023-04-01T19:26:58;10.70;81.20
41628;DHT22;27321;50.816;6.054;2023-04-01T19:30:47;10.60;81.20
41628;DHT22;27321;50.816;6.054;2023-04-01T19:33:57;10.60;81.50
41628;DHT22;27321;50.816;6.054;2023-04-01T19:37:27;10.60;81.60
41628;DHT22;27321;50.816;6.054;2023-04-01T19:51:28;10.60;81.70
41628;DHT22;27321;50.816;6.054;2023-04-01T20:01:58;10.60;81.40
41628;DHT22;27321;50.816;6.054;2023-04-01T20:05:24;10.60;81.70
41628;DHT22;27321;50.816;6.054;2023-04-01T20:16:13;10.60;81.90
41628;DHT22;27321;50.816;6.054;2023-04-01T20:19:34;10.60;81.80
41628;DHT22;27321;50.816;6.054;2023-04-01T20:25:45;10.60;82.00
41628;DHT22;27321;50.816;6.054;2023-04-01T20:33:09;10.50;82.20
41628;DHT22;27321;50.816;6.054;2023-04-01T20:40:23;10.60;82.20
41628;DHT22;27321;50.816;6.054;2023-04-01T20:44:30;10.60;82.40
41628;DHT22;27321;50.816;6.054;2023-04-01T20:47:18;10.60;82.70
41628;DHT22;27321;50.816;6.054;2023-04-01T20:57:34;10.60;83.00
41628;DHT22;27321;50.816;6.054;2023-04-01T21:01:33;10.60;82.70
41628;DHT22;27321;50.816;6.054;2023-04-01T21:09:18;10.70;82.50
41628;DHT22;27321;50.816;6.054;2023-04-01T21:19:49;10.60;82.90
41628;DHT22;27321;50.816;6.054;2023-04-01T21:27:23;10.60;83.50
41628;DHT22;27321;50.816;6.054;2023-04-01T21:37:42;10.60;85.10
41628;DHT22;27321;50.816;6.054;2023-04-01T21:41:25;10.50;85.50
41628;DHT22;27321;50.816;6.054;2023-04-01T21:45:14;10.50;85.90
41628;DHT22;27321;50.816;6.054;2023-04-01T22:09:19;10.20;86.40
41628;DHT22;27321;50.816;6.054;2023-04-01T22:29:48;10.10;86.00
41628;DHT22;27321;50.816;6.054;2023-04-01T22:37:33;10.00;85.70
41628;DHT22;27321;50.816;6.054;2023-04-01T22:40:52;9.90;86.30
41628;DHT22;27321;50.816;6.054;2023-04-01T22:43:58;9.80;86.00
41628;DHT22;27321;50.816;6.054;2023-04-01T22:47:10;9.80;86.10
41628;DHT22;27321;50.816;6.054;2023-04-01T23:01:06;9.60;86.10
41628;DHT22;27321;50.816;6.054;2023-04-01T23:04:16;9.60;86.40
41628;DHT22;27321;50.816;6.054;2023-04-01T23:07:44;9.50;86.60
41628;DHT22;27321;50.816;6.054;2023-04-01T23:10:56;9.50;87.00
41628;DHT22;27321;50.816;6.054;2023-04-01T23:27:31;9.40;86.60
41628;DHT22;27321;50.816;6.054;2023-04-01T23:33:41;9.30;86.10
41628;DHT22;27321;50.816;6.054;2023-04-01T23:36:45;9.30;86.50
41628;DHT22;27321;50.816;6.054;2023-04-01T23:39:56;9.30;85.90
41628;DHT22;27321;50.816;6.054;2023-04-01T23:42:58;9.20;85.80
41628;DHT22;27321;50.816;6.054;2023-04-01T23:46:01;9.10;86.00
41628;DHT22;27321;50.816;6.054;2023-04-01T23:53:24;9.20;85.70
41628;DHT22;27321;50.816;6.054;2023-04-01T23:56:43;9.20;85.10
